Time;durP1;ratioP1;P1;durP2;ratioP2;P2;SDS_P1;SDS_P2;PMS_P1;PMS_P2;Temp;Humidity;BMP_temperature;BMP_pressure;BME280_temperature;BME280_humidity;BME280_pressure;Samples;Min_cycle;Max_cycle;Signal;HPM_P1;HPM_P2
2021/06/01 00:00:11;;;;;;;4.85;1.40;;;16.90;41.20;16.20;101881.00;;;;4919205;28;20044;-75
2021/06/01 00:02:37;;;;;;;3.10;1.67;;;16.90;42.20;16.20;101885.00;;;;4927375;28;20059;-75
2021/06/01 00:05:07;;;;;;;1.88;1.45;;;16.90;41.40;16.20;101877.00;;;;4925620;29;20036;-75
2021/06/01 00:07:34;;;;;;;2.17;1.40;;;16.90;42.50;16.20;101876.00;;;;4927706;28;20044;-75
2021/06/01 00:10:00;;;;;;;2.33;1.45;;;16.80;42.20;16.20;101870.00;;;;4924169;29;20040;-75
2021/06/01 00:12:26;;;;;;;4.32;1.50;;;16.80;41.90;16.10;101870.00;;;;4924692;29;20044;-73
2021/06/01 00:14:52;;;;;;;3.28;1.58;;;16.80;42.50;16.10;101870.00;;;;4923288;29;20048;-75
2021/06/01 00:17:18;;;;;;;2.33;1.40;;;16.70;41.60;16.10;101862.00;;;;4940494;28;20044;-74
2021/06/01 00:19:44;;;;;;;3.95;1.40;;;16.70;41.90;16.10;101862.00;;;;4911467;29;20489;-75
2021/06/01 00:22:10;;;;;;;2.92;1.33;;;16.70;42.70;16.10;101850.00;;;;4923117;29;20127;-74
2021/06/01 00:24:39;;;;;;;2.47;1.50;;;16.70;42.70;16.00;101863.00;;;;4923127;29;20043;-74
2021/06/01 00:27:05;;;;;;;3.15;1.52;;;16.70;43.00;16.00;101859.00;;;;4908456;29;20151;-74
2021/06/01 00:29:31;;;;;;;1.80;1.40;;;16.70;43.00;16.00;101861.00;;;;4923497;29;20105;-74
2021/06/01 00:31:57;;;;;;;3.83;1.50;;;16.60;43.00;16.00;101865.00;;;;4926219;28;20308;-75
2021/06/01 00:34:23;;;;;;;2.45;1.60;;;16.60;42.00;16.00;101869.00;;;;4927481;28;20054;-74
2021/06/01 00:36:49;;;;;;;2.90;1.60;;;16.60;42.20;16.00;101865.00;;;;4926683;28;20066;-75
2021/06/01 00:39:15;;;;;;;2.55;1.30;;;16.60;43.20;15.90;101876.00;;;;4923265;28;20044;-74
2021/06/01 00:41:41;;;;;;;2.08;1.80;;;16.60;43.10;15.90;101862.00;;;;4925468;28;20051;-76
2021/06/01 00:44:07;;;;;;;3.25;1.30;;;16.50;43.20;15.90;101859.00;;;;4925158;28;20040;-75
2021/06/01 00:46:33;;;;;;;1.90;1.60;;;16.50;43.30;15.80;101865.00;;;;4943647;28;20096;-75
2021/06/01 00:49:00;;;;;;;2.00;1.50;;;16.50;43.50;15.80;101865.00;;;;4928966;28;20058;-75
2021/06/01 00:51:26;;;;;;;4.40;1.30;;;16.50;43.60;15.80;101870.00;;;;4925353;29;20050;-74
2021/06/01 00:53:52;;;;;;;6.43;1.90;;;16.40;44.00;15.80;101861.00;;;;4921272;29;20064;-75
2021/06/01 00:56:18;;;;;;;3.80;1.67;;;16.40;43.10;15.70;101864.00;;;;4926030;29;20082;-74
2021/06/01 00:58:44;;;;;;;2.60;2.00;;;16.40;44.10;15.70;101858.00;;;;4938200;28;20048;-74
2021/06/01 01:03:39;;;;;;;3.25;1.48;;;16.30;44.30;15.70;101870.00;;;;4922187;28;20091;-73
2021/06/01 01:06:46;;;;;;;2.10;1.65;;;16.30;44.10;15.60;101870.00;;;;4923273;29;20398;-74
2021/06/01 01:09:15;;;;;;;3.55;2.00;;;16.30;43.90;15.60;101861.00;;;;4923794;29;20051;-74
2021/06/01 01:12:08;;;;;;;2.17;1.60;;;16.20;43.50;15.60;101863.00;;;;4906338;29;20056;-74
2021/06/01 01:14:40;;;;;;;2.78;1.80;;;16.30;44.60;15.50;101870.00;;;;4923618;28;20051;-75
2021/06/01 01:17:21;;;;;;;3.72;2.05;;;16.20;44.70;15.50;101871.00;;;;4919568;29;20668;-75
2021/06/01 01:20:27;;;;;;;3.65;1.75;;;16.20;44.80;15.50;101882.00;;;;4917504;29;20059;-75
2021/06/01 01:23:01;;;;;;;9.02;2.30;;;16.20;44.90;15.50;101875.00;;;;4919890;29;20143;-74
2021/06/01 01:25:44;;;;;;;2.97;1.80;;;16.20;44.90;15.40;101874.00;;;;4923486;28;20043;-75
2021/06/01 01:29:07;;;;;;;3.97;1.55;;;16.10;44.70;15.40;101882.00;;;;4907362;29;20079;-74
2021/06/01 01:31:42;;;;;;;6.13;1.60;;;16.10;45.70;15.40;101871.00;;;;4924858;28;20114;-75
2021/06/01 01:34:10;;;;;;;4.00;1.67;;;16.10;45.10;15.40;101870.00;;;;4929127;29;20078;-76
2021/06/01 01:36:37;;;;;;;3.30;1.73;;;16.10;45.30;15.40;101878.00;;;;4908028;29;20078;-75
2021/06/01 01:39:05;;;;;;;;;;;16.10;45.40;15.40;101869.00;;;;4911216;29;20079;-74
2021/06/01 01:41:35;;;;;;;6.93;2.03;;;16.00;45.70;15.40;101870.00;;;;4925886;28;20020;-74
2021/06/01 01:44:08;;;;;;;4.88;1.90;;;16.00;44.60;15.40;101878.00;;;;4923217;29;20138;-75
2021/06/01 01:49:20;;;;;;;3.17;1.95;;;16.00;45.60;15.40;101869.00;;;;4915585;29;20398;-75
2021/06/01 01:51:51;;;;;;;4.88;2.30;;;16.00;45.70;15.30;101860.00;;;;4910311;29;20111;-75
2021/06/01 01:54:23;;;;;;;5.25;2.40;;;16.00;45.80;15.30;101858.00;;;;4939805;28;20123;-75
2021/06/01 01:56:54;;;;;;;3.13;2.10;;;16.00;46.10;15.30;101856.00;;;;4926571;29;20148;-75
2021/06/01 01:59:27;;;;;;;7.38;2.10;;;16.00;46.30;15.30;101860.00;;;;4920234;28;20044;-76
2021/06/01 02:01:54;;;;;;;4.25;2.40;;;16.00;46.00;15.30;101850.00;;;;4925101;29;20067;-74
2021/06/01 02:04:24;;;;;;;;;;;16.00;45.70;15.30;101858.00;;;;4923445;29;20047;-74
2021/06/01 02:06:52;;;;;;;3.88;2.25;;;16.00;47.50;15.30;101854.00;;;;4916670;28;20010;-74
2021/06/01 02:09:21;;;;;;;5.50;2.60;;;16.00;46.30;15.30;101848.00;;;;4917776;29;20126;-73
2021/06/01 02:11:47;;;;;;;3.95;2.55;;;15.90;46.10;15.30;101848.00;;;;4920342;29;20564;-76
2021/06/01 02:14:13;;;;;;;8.63;2.60;;;16.00;45.80;15.30;101850.00;;;;4901520;29;20051;-76
2021/06/01 02:16:42;;;;;;;4.03;2.53;;;15.90;46.00;15.30;101849.00;;;;4923672;28;20040;-76
2021/06/01 02:19:11;;;;;;;3.67;2.38;;;15.90;46.50;15.30;101862.00;;;;4925909;29;20036;-75
2021/06/01 02:24:37;;;;;;;5.43;2.08;;;15.90;46.60;15.20;101858.00;;;;4903190;29;20044;-75
2021/06/01 02:27:31;;;;;;;8.57;2.30;;;15.90;46.90;15.20;101855.00;;;;4910393;29;20414;-74
2021/06/01 02:30:09;;;;;;;5.13;2.30;;;15.90;46.90;15.10;101859.00;;;;4921765;28;20043;-75
2021/06/01 02:32:41;;;;;;;5.85;2.05;;;15.80;46.40;15.10;101870.00;;;;4924318;28;20395;-76
2021/06/01 02:35:15;;;;;;;3.67;2.30;;;15.80;46.90;15.10;101854.00;;;;4930223;29;20047;-74
2021/06/01 02:37:45;;;;;;;4.20;2.45;;;15.80;46.10;15.00;101852.00;;;;4921931;28;20087;-75
2021/06/01 02:40:15;;;;;;;5.68;2.72;;;16.40;47.40;15.00;101854.00;;;;4922845;28;20043;-74
2021/06/01 02:42:44;;;;;;;5.70;2.47;;;15.70;46.30;15.00;101849.00;;;;4926883;29;20051;-74
2021/06/01 02:45:15;;;;;;;5.85;2.40;;;15.70;47.30;15.00;101852.00;;;;4921879;28;20046;-75
2021/06/01 02:47:41;;;;;;;4.28;2.60;;;15.70;47.50;15.00;101848.00;;;;4923129;29;20047;-75
2021/06/01 02:50:14;;;;;;;4.97;2.50;;;15.60;47.70;14.90;101847.00;;;;4927524;28;20040;-76
2021/06/01 02:52:44;;;;;;;4.30;2.60;;;15.70;47.60;14.90;101853.00;;;;4924420;28;20052;-75
2021/06/01 02:55:15;;;;;;;3.92;2.25;;;15.60;47.80;14.90;101840.00;;;;4917090;29;20036;-75
2021/06/01 02:57:41;;;;;;;3.63;2.50;;;15.60;47.80;14.90;101840.00;;;;4924659;28;20055;-74
2021/06/01 03:00:12;;;;;;;6.13;2.35;;;15.60;48.20;14.80;101853.00;;;;4920976;29;20048;-75
2021/06/01 03:02:40;;;;;;;9.23;3.05;;;15.50;47.90;14.80;101840.00;;;;4925459;28;20706;-75
2021/06/01 03:05:07;;;;;;;4.63;2.88;;;15.50;48.00;14.80;101848.00;;;;4934750;28;20082;-74
2021/06/01 03:07:42;;;;;;;6.07;3.08;;;15.50;49.40;14.80;101846.00;;;;4921196;28;20162;-74
2021/06/01 03:10:13;;;;;;;7.53;3.45;;;15.50;47.50;14.80;101847.00;;;;4930503;28;20048;-74
2021/06/01 03:12:55;;;;;;;5.45;2.90;;;15.40;48.50;14.80;101842.00;;;;4929593;29;20044;-74
2021/06/01 03:15:22;;;;;;;5.47;2.83;;;15.40;49.60;14.80;101851.00;;;;4912478;29;20449;-73
2021/06/01 03:17:49;;;;;;;7.03;3.08;;;15.50;48.40;14.80;101845.00;;;;4924716;29;20079;-75
2021/06/01 03:20:15;;;;;;;7.65;2.85;;;15.50;48.50;14.80;101841.00;;;;4920596;29;20044;-74
2021/06/01 03:22:41;;;;;;;6.28;3.00;;;15.50;48.80;14.80;101841.00;;;;4922848;29;20054;-77
2021/06/01 03:25:08;;;;;;;5.07;2.85;;;15.40;48.40;14.80;101836.00;;;;4930316;28;20044;-74
2021/06/01 03:27:34;;;;;;;8.18;3.05;;;15.40;48.60;14.80;101840.00;;;;4919586;29;20071;-74
2021/06/01 03:30:00;;;;;;;5.05;3.20;;;15.50;48.60;14.80;101840.00;;;;4925247;28;20080;-75
2021/06/01 03:32:26;;;;;;;4.50;2.58;;;15.40;48.70;14.80;101828.00;;;;4928125;29;20087;-74
2021/06/01 03:34:52;;;;;;;4.25;2.80;;;15.40;49.90;14.80;101844.00;;;;4927141;29;20048;-74
2021/06/01 03:37:18;;;;;;;5.13;2.83;;;15.40;48.90;14.80;101838.00;;;;4924290;28;20126;-74
2021/06/01 03:39:44;;;;;;;7.85;2.50;;;15.40;47.80;14.80;101839.00;;;;4923672;28;20059;-76
2021/06/01 03:42:12;;;;;;;4.82;2.50;;;15.40;48.80;14.80;101836.00;;;;4905025;29;20036;-75
2021/06/01 03:44:40;;;;;;;7.82;3.58;;;15.40;49.00;14.70;101843.00;;;;4930816;29;20650;-75
2021/06/01 03:47:06;;;;;;;6.63;2.85;;;15.40;49.10;14.70;101845.00;;;;4921733;29;20035;-75
2021/06/01 03:49:34;;;;;;;3.85;2.72;;;15.40;49.50;14.70;101851.00;;;;4917481;28;20062;-75
2021/06/01 03:52:06;;;;;;;4.72;3.05;;;15.40;48.40;14.70;101846.00;;;;4912107;29;20043;-75
2021/06/01 03:54:32;;;;;;;4.30;2.40;;;15.30;49.30;14.70;101852.00;;;;4921060;28;20040;-73
2021/06/01 03:56:58;;;;;;;8.97;3.00;;;15.40;49.60;14.70;101848.00;;;;4923297;29;20054;-76
2021/06/01 03:59:24;;;;;;;6.80;2.50;;;15.30;48.70;14.70;101847.00;;;;4911281;28;20048;-76
2021/06/01 04:01:50;;;;;;;6.70;3.20;;;15.40;49.60;14.70;101846.00;;;;4942828;28;20056;-76
2021/06/01 04:04:16;;;;;;;4.93;2.72;;;15.40;49.70;14.70;101849.00;;;;4930608;29;20071;-76
2021/06/01 04:06:42;;;;;;;5.28;3.17;;;15.30;49.80;14.60;101850.00;;;;4920480;28;20451;-75
2021/06/01 04:09:08;;;;;;;4.68;2.75;;;15.30;49.80;14.60;101850.00;;;;4927325;29;20040;-76
2021/06/01 04:11:34;;;;;;;5.47;2.75;;;15.30;49.20;14.70;101842.00;;;;4928261;28;20132;-77
2021/06/01 04:14:00;;;;;;;8.88;3.33;;;15.30;50.00;14.60;101850.00;;;;4914472;29;20086;-75
2021/06/01 04:16:25;;;;;;;4.25;2.58;;;15.30;50.20;14.60;101854.00;;;;4927562;28;20514;-75
2021/06/01 04:18:51;;;;;;;5.50;3.00;;;15.30;50.10;14.60;101843.00;;;;4913972;29;20074;-75
2021/06/01 04:21:17;;;;;;;7.30;3.30;;;15.30;50.20;14.60;101850.00;;;;4926143;28;20043;-73
2021/06/01 04:23:46;;;;;;;7.22;3.25;;;15.30;50.80;14.60;101853.00;;;;4925403;28;20054;-76
2021/06/01 04:26:12;;;;;;;7.63;3.15;;;15.30;50.50;14.60;101847.00;;;;4917694;29;20040;-75
2021/06/01 04:28:39;;;;;;;4.90;3.00;;;15.30;50.40;14.60;101845.00;;;;4920336;28;20043;-76
2021/06/01 04:31:05;;;;;;;5.10;2.95;;;15.30;50.60;14.60;101853.00;;;;4929184;28;20039;-76
2021/06/01 04:33:32;;;;;;;6.30;3.60;;;15.30;50.50;14.70;101853.00;;;;4941228;28;20135;-75
2021/06/01 04:35:59;;;;;;;5.90;3.35;;;15.30;50.60;14.80;101850.00;;;;4928935;28;20579;-75
2021/06/01 04:38:25;;;;;;;;;;;15.40;50.40;14.70;101855.00;;;;4925893;28;20084;-76
2021/06/01 04:40:52;;;;;;;7.18;3.20;;;15.40;51.40;14.80;101857.00;;;;4922778;29;19927;-76
2021/06/01 04:43:17;;;;;;;5.43;2.80;;;15.40;50.40;14.90;101856.00;;;;4922666;28;20441;-76
2021/06/01 04:45:43;;;;;;;6.25;3.10;;;15.50;50.30;15.00;101859.00;;;;4918936;29;20052;-76
2021/06/01 04:48:09;;;;;;;6.63;3.13;;;15.60;50.70;15.10;101856.00;;;;4904613;29;20107;-75
2021/06/01 04:50:36;;;;;;;6.03;3.40;;;15.60;50.60;15.10;101854.00;;;;4905631;29;20043;-75
2021/06/01 04:53:01;;;;;;;6.22;3.10;;;15.70;49.60;15.20;101859.00;;;;4905172;28;20036;-75
2021/06/01 04:55:27;;;;;;;5.70;3.15;;;15.70;50.40;15.30;101856.00;;;;4903590;29;20047;-76
2021/06/01 04:57:53;;;;;;;6.30;3.30;;;15.80;50.20;15.40;101851.00;;;;4906559;29;20152;-78
2021/06/01 05:00:20;;;;;;;6.60;3.30;;;15.90;50.30;15.50;101854.00;;;;4905929;29;20564;-74
2021/06/01 05:02:46;;;;;;;7.35;3.13;;;15.90;50.10;15.50;101856.00;;;;4906444;29;20100;-76
2021/06/01 05:05:12;;;;;;;6.38;3.20;;;16.10;49.10;15.60;101854.00;;;;4904529;29;20039;-75
2021/06/01 05:07:38;;;;;;;5.00;3.17;;;16.10;50.10;15.70;101848.00;;;;4933311;28;20545;-75
2021/06/01 05:10:05;;;;;;;5.97;3.35;;;16.20;49.40;15.80;101853.00;;;;4921773;28;20470;-77
2021/06/01 05:12:31;;;;;;;7.38;2.97;;;16.30;49.90;15.90;101846.00;;;;4920843;29;20417;-76
2021/06/01 05:14:58;;;;;;;4.50;2.95;;;16.50;49.00;16.00;101843.00;;;;4926011;28;20117;-76
2021/06/01 05:17:25;;;;;;;5.43;2.92;;;16.50;49.70;16.10;101843.00;;;;4925028;28;20528;-76
2021/06/01 05:19:51;;;;;;;8.90;3.75;;;16.50;49.70;16.20;101851.00;;;;4926774;28;20043;-76
2021/06/01 05:22:17;;;;;;;6.43;3.42;;;16.60;49.70;16.30;101856.00;;;;4919950;28;20102;-74
2021/06/01 05:24:44;;;;;;;5.95;3.38;;;16.70;49.70;16.40;101857.00;;;;4924370;28;20574;-75
2021/06/01 05:27:11;;;;;;;8.23;3.75;;;16.80;49.40;16.40;101849.00;;;;4922622;28;20040;-75
2021/06/01 05:29:42;;;;;;;;;;;16.80;49.50;16.50;101847.00;;;;4925440;28;20139;-76
2021/06/01 05:32:50;;;;;;;8.38;3.40;;;16.80;49.80;16.60;101848.00;;;;4923270;28;19977;-77
2021/06/01 05:35:00;;;;;;;6.25;3.22;;;17.00;49.10;16.70;101849.00;;;;4902394;28;20403;-76
2021/06/01 05:37:28;;;;;;;7.53;3.50;;;17.10;49.10;16.80;101847.00;;;;4923646;28;20070;-76
2021/06/01 05:39:54;;;;;;;9.65;3.50;;;17.20;50.10;16.90;101844.00;;;;4908875;28;20067;-76
2021/06/01 05:42:21;;;;;;;6.80;3.20;;;17.30;48.90;17.00;101840.00;;;;4921514;29;20424;-75
2021/06/01 05:44:47;;;;;;;7.72;3.25;;;17.40;48.80;17.10;101847.00;;;;4924229;28;20047;-75
2021/06/01 05:47:17;;;;;;;5.93;3.38;;;17.40;48.60;17.20;101831.00;;;;4938565;28;20954;-76
2021/06/01 05:49:46;;;;;;;6.63;3.50;;;17.50;48.70;17.30;101842.00;;;;4920833;29;20226;-79
2021/06/01 05:52:12;;;;;;;9.18;3.47;;;17.60;48.50;17.30;101844.00;;;;4918580;29;20055;-75
2021/06/01 05:54:38;;;;;;;6.53;3.30;;;17.70;48.80;17.40;101850.00;;;;4900957;29;20530;-75
2021/06/01 05:57:06;;;;;;;9.35;2.95;;;17.80;47.50;17.50;101841.00;;;;4901176;29;20364;-73
2021/06/01 05:59:33;;;;;;;6.50;3.40;;;17.90;48.60;17.60;101844.00;;;;4917523;29;20049;-74
2021/06/01 06:01:59;;;;;;;6.28;3.00;;;18.00;48.50;17.70;101847.00;;;;4919904;28;21089;-74
2021/06/01 06:04:25;;;;;;;5.75;3.25;;;18.10;48.50;17.80;101842.00;;;;4920927;28;20072;-75
2021/06/01 06:06:51;;;;;;;4.88;3.38;;;18.20;48.50;18.00;101845.00;;;;4921231;28;20501;-75
2021/06/01 06:09:18;;;;;;;5.65;2.85;;;18.30;47.40;18.10;101850.00;;;;4927527;28;20715;-74
2021/06/01 06:11:44;;;;;;;5.97;3.73;;;18.40;48.30;18.20;101846.00;;;;4925833;29;20047;-76
2021/06/01 06:14:09;;;;;;;5.70;2.83;;;18.40;48.10;18.30;101858.00;;;;4921336;28;20052;-76
2021/06/01 06:16:50;;;;;;;6.30;2.97;;;18.50;48.30;18.40;101848.00;;;;4919985;29;20424;-73
2021/06/01 06:19:16;;;;;;;4.03;2.67;;;18.70;48.00;18.60;101846.00;;;;4920351;28;20040;-75
2021/06/01 06:21:42;;;;;;;5.95;3.20;;;18.80;47.80;18.70;101855.00;;;;4904056;29;20055;-75
2021/06/01 06:24:08;;;;;;;5.20;2.90;;;18.90;47.80;18.80;101856.00;;;;4916723;29;20071;-75
2021/06/01 06:26:34;;;;;;;7.78;3.40;;;19.00;47.60;18.80;101854.00;;;;4895808;29;20075;-76
2021/06/01 06:29:00;;;;;;;6.90;3.35;;;19.10;47.60;18.90;101845.00;;;;4897114;29;20132;-75
2021/06/01 06:31:26;;;;;;;6.25;2.90;;;19.20;47.30;19.00;101845.00;;;;4903896;29;20473;-75
2021/06/01 06:33:56;;;;;;;6.15;3.08;;;19.40;46.00;19.10;101846.00;;;;4919659;29;20057;-76
2021/06/01 06:36:25;;;;;;;5.85;2.85;;;19.40;46.90;19.20;101850.00;;;;4921611;29;20052;-77
2021/06/01 06:38:51;;;;;;;4.25;3.08;;;19.50;44.30;19.30;101858.00;;;;4926321;28;20110;-75
2021/06/01 06:41:18;;;;;;;8.68;3.15;;;19.50;46.00;19.40;101853.00;;;;4904173;29;20044;-75
2021/06/01 06:43:53;;;;;;;6.38;3.00;;;19.60;46.30;19.50;101858.00;;;;4918789;29;20850;-75
2021/06/01 06:46:27;;;;;;;6.43;2.60;;;19.70;46.00;19.60;101854.00;;;;4916497;28;20763;-76
2021/06/01 06:48:53;;;;;;;7.50;3.00;;;19.80;45.60;19.70;101862.00;;;;4924567;29;20548;-75
2021/06/01 06:51:22;;;;;;;6.28;3.22;;;19.90;45.30;19.70;101857.00;;;;4912067;28;20045;-74
2021/06/01 06:53:53;;;;;;;7.47;2.88;;;19.90;46.40;19.80;101848.00;;;;4919467;29;20044;-74
2021/06/01 06:56:22;;;;;;;7.72;3.17;;;20.10;44.30;19.90;101844.00;;;;4925855;29;20099;-74
2021/06/01 06:58:48;;;;;;;6.20;3.30;;;20.10;43.30;20.00;101846.00;;;;4925739;29;20106;-74
2021/06/01 07:01:14;;;;;;;5.38;3.25;;;20.40;45.40;20.10;101851.00;;;;4913757;28;20128;-75
2021/06/01 07:03:40;;;;;;;8.18;3.00;;;20.30;43.50;20.20;101846.00;;;;4915751;29;20068;-73
2021/06/01 07:06:07;;;;;;;4.13;2.58;;;20.40;45.20;20.20;101849.00;;;;4924918;29;20062;-74
2021/06/01 07:08:33;;;;;;;4.88;3.05;;;20.50;43.50;20.30;101845.00;;;;4929478;28;20118;-75
2021/06/01 07:11:00;;;;;;;7.30;2.90;;;20.50;43.60;20.50;101853.00;;;;4929196;28;20099;-76
2021/06/01 07:13:52;;;;;;;7.50;3.53;;;20.60;45.10;20.50;101847.00;;;;4933143;28;20044;-76
2021/06/01 07:16:19;;;;;;;5.30;2.95;;;20.80;43.30;20.70;101852.00;;;;4929498;28;20561;-76
2021/06/01 07:18:46;;;;;;;6.13;3.00;;;20.90;43.60;20.90;101843.00;;;;4934307;28;20040;-76
2021/06/01 07:21:13;;;;;;;4.55;3.08;;;21.00;44.70;20.90;101842.00;;;;4932266;28;20491;-77
2021/06/01 07:23:43;;;;;;;5.40;2.80;;;21.10;44.40;21.10;101837.00;;;;4929466;28;20508;-76
2021/06/01 07:26:16;;;;;;;4.53;3.38;;;21.20;44.60;21.20;101844.00;;;;4933310;28;20473;-79
2021/06/01 07:28:42;;;;;;;6.97;2.92;;;21.30;44.20;21.30;101853.00;;;;4926114;29;20035;-75
2021/06/01 07:31:13;;;;;;;5.03;3.40;;;21.40;44.00;21.40;101853.00;;;;4934209;29;20032;-75
2021/06/01 07:33:42;;;;;;;3.47;2.80;;;21.50;43.80;21.50;101844.00;;;;4913283;28;20060;-75
2021/06/01 07:36:09;;;;;;;10.48;3.67;;;21.60;43.50;21.50;101855.00;;;;4936243;29;20055;-76
2021/06/01 07:38:36;;;;;;;7.18;3.33;;;21.60;43.10;21.50;101847.00;;;;4916550;28;20055;-76
2021/06/01 07:41:06;;;;;;;7.82;3.22;;;21.70;43.50;21.70;101849.00;;;;4920209;29;20391;-77
2021/06/01 07:43:33;;;;;;;7.13;3.92;;;21.80;44.80;21.80;101842.00;;;;4928885;28;20056;-77
2021/06/01 07:46:02;;;;;;;;;;;21.90;43.30;21.80;101840.00;;;;4924278;28;20070;-75
2021/06/01 07:48:32;;;;;;;7.10;3.80;;;22.00;42.30;21.90;101848.00;;;;4915913;29;19927;-75
2021/06/01 07:50:58;;;;;;;6.10;3.60;;;22.10;43.30;22.00;101851.00;;;;4930999;28;20043;-76
2021/06/01 07:53:24;;;;;;;6.30;3.40;;;22.20;43.30;22.10;101853.00;;;;4925524;28;20042;-75
2021/06/01 07:55:52;;;;;;;10.23;3.60;;;22.30;42.20;22.20;101845.00;;;;4922247;28;20666;-76
2021/06/01 07:58:21;;;;;;;7.38;3.90;;;22.40;42.00;22.30;101844.00;;;;4910071;29;20059;-75
2021/06/01 08:00:47;;;;;;;7.25;3.95;;;22.60;42.50;22.50;101844.00;;;;4917809;29;20060;-75
2021/06/01 08:03:17;;;;;;;6.43;3.70;;;22.60;43.20;22.60;101842.00;;;;4907484;29;20048;-74
2021/06/01 08:05:44;;;;;;;6.43;3.40;;;22.70;43.10;22.60;101849.00;;;;4910694;28;20895;-75
2021/06/01 08:08:10;;;;;;;8.50;3.80;;;22.80;40.90;22.70;101841.00;;;;4930832;28;21194;-76
2021/06/01 08:10:36;;;;;;;7.22;3.45;;;22.90;40.60;22.80;101834.00;;;;4930002;28;20048;-74
2021/06/01 08:13:03;;;;;;;5.63;3.13;;;22.90;42.40;23.00;101829.00;;;;4919729;28;20064;-75
2021/06/01 08:15:29;;;;;;;5.45;3.13;;;23.10;41.90;23.10;101829.00;;;;4923408;28;20581;-75
2021/06/01 08:18:01;;;;;;;4.80;3.03;;;23.20;40.40;23.20;101826.00;;;;4929297;28;20722;-76
2021/06/01 08:22:56;;;;;;;7.32;3.10;;;23.50;41.50;23.50;101823.00;;;;4920793;29;20047;-75
2021/06/01 08:25:23;;;;;;;6.93;3.17;;;23.60;41.60;23.60;101818.00;;;;4908470;28;20055;-76
2021/06/01 08:27:49;;;;;;;5.95;3.42;;;23.70;40.80;23.70;101817.00;;;;4930316;28;20404;-76
2021/06/01 08:30:16;;;;;;;7.47;3.30;;;23.70;38.20;23.80;101818.00;;;;4932372;28;20398;-75
2021/06/01 08:32:42;;;;;;;;;;;23.90;39.80;23.70;101823.00;;;;4933317;28;20303;-75
2021/06/01 08:35:08;;;;;;;7.70;2.75;;;23.90;38.60;23.90;101827.00;;;;4923513;29;20360;-75
2021/06/01 08:37:34;;;;;;;;;;;24.10;40.20;23.90;101820.00;;;;4925010;28;20142;-74
2021/06/01 08:40:00;;;;;;;4.57;3.05;;;24.10;39.50;24.10;101830.00;;;;4921377;28;20668;-76
2021/06/01 08:42:29;;;;;;;4.75;3.05;;;24.20;39.30;24.20;101827.00;;;;4911986;29;20052;-75
2021/06/01 08:44:55;;;;;;;5.70;3.40;;;24.30;39.60;24.40;101822.00;;;;4924776;28;20468;-75
2021/06/01 08:47:21;;;;;;;6.35;3.30;;;24.40;39.20;24.50;101817.00;;;;4923261;28;20131;-75
2021/06/01 08:49:49;;;;;;;7.28;3.70;;;24.50;38.60;24.50;101814.00;;;;4921654;28;20416;-75
2021/06/01 08:52:16;;;;;;;6.85;3.10;;;24.60;38.20;24.40;101818.00;;;;4903469;29;20051;-74
2021/06/01 08:54:45;;;;;;;3.92;2.70;;;24.50;37.30;24.40;101822.00;;;;4909813;29;20772;-74
2021/06/01 08:57:11;;;;;;;4.78;3.47;;;24.60;37.50;24.50;101824.00;;;;4912246;29;20060;-73
2021/06/01 08:59:40;;;;;;;3.45;2.80;;;24.70;38.10;24.50;101820.00;;;;4909379;28;20298;-74
2021/06/01 09:02:06;;;;;;;5.78;3.47;;;24.70;38.60;24.70;101821.00;;;;4917370;29;20044;-74
2021/06/01 09:04:50;;;;;;;9.23;3.50;;;24.80;38.60;24.70;101820.00;;;;4905933;29;20044;-75
2021/06/01 09:07:25;;;;;;;5.05;3.22;;;24.90;34.70;24.90;101819.00;;;;4920384;29;20040;-75
2021/06/01 09:19:50;;;;;;;7.70;2.88;;;25.20;35.50;25.10;101805.00;;;;4936416;28;20028;-74
2021/06/01 09:21:16;;;;;;;6.28;2.78;;;25.30;33.90;25.10;101798.00;;;;4925892;28;20036;-74
2021/06/01 09:23:59;;;;;;;5.85;3.30;;;25.30;36.20;25.20;101793.00;;;;4924443;28;20154;-75
2021/06/01 09:27:04;;;;;;;4.55;2.88;;;25.40;33.60;25.30;101789.00;;;;4918166;28;20039;-75
2021/06/01 09:29:33;;;;;;;6.78;2.65;;;25.50;35.20;25.40;101798.00;;;;4920897;28;20402;-76
2021/06/01 09:32:16;;;;;;;4.15;1.80;;;25.50;35.50;25.50;101789.00;;;;4920156;29;20055;-74
2021/06/01 09:34:51;;;;;;;3.00;2.40;;;25.70;33.40;25.60;101796.00;;;;4913463;28;20036;-75
2021/06/01 09:37:28;;;;;;;1.90;1.80;;;25.70;34.40;25.60;101789.00;;;;4922636;28;20044;-76
2021/06/01 09:40:19;;;;;;;6.55;2.67;;;25.80;32.90;25.70;101794.00;;;;4912677;29;20059;-75
2021/06/01 09:42:51;;;;;;;5.82;2.10;;;25.80;31.90;25.70;101800.00;;;;4923746;29;20135;-75
2021/06/01 09:45:24;;;;;;;4.55;2.47;;;25.80;31.80;25.80;101797.00;;;;4931143;28;20079;-73
2021/06/01 09:47:55;;;;;;;3.17;1.95;;;25.90;32.70;25.90;101791.00;;;;4913103;29;20453;-74
2021/06/01 09:50:37;;;;;;;2.97;2.08;;;26.00;31.90;25.80;101784.00;;;;4926970;28;20039;-75
2021/06/01 09:53:34;;;;;;;3.22;2.30;;;26.00;32.20;25.70;101786.00;;;;4923531;28;20048;-75
2021/06/01 09:56:01;;;;;;;3.17;1.85;;;26.00;32.30;25.90;101788.00;;;;4920958;28;20056;-75
2021/06/01 09:58:36;;;;;;;2.13;1.60;;;26.00;32.20;26.00;101776.00;;;;4905245;29;20494;-74
2021/06/01 10:01:06;;;;;;;3.72;2.30;;;26.10;31.50;26.10;101767.00;;;;4920738;28;20095;-75
2021/06/01 10:03:46;;;;;;;2.58;2.20;;;26.30;31.50;26.10;101762.00;;;;4909633;28;20131;-76
2021/06/01 10:06:13;;;;;;;3.85;2.00;;;26.20;29.20;26.10;101780.00;;;;4918469;29;20051;-75
2021/06/01 10:08:53;;;;;;;3.03;2.05;;;26.30;31.10;26.00;101778.00;;;;4917300;29;20044;-75
2021/06/01 10:11:22;;;;;;;5.28;2.20;;;;;26.00;101774.00;;;;4917686;28;20162;-74
2021/06/01 10:13:48;;;;;;;3.88;1.92;;;26.20;27.80;26.00;101775.00;;;;4920754;28;20111;-73
2021/06/01 10:16:17;;;;;;;5.90;2.28;;;26.20;30.40;26.10;101777.00;;;;4921234;29;20068;-73
2021/06/01 10:18:45;;;;;;;5.78;2.20;;;26.30;31.10;26.20;101765.00;;;;4922498;28;20120;-73
2021/06/01 10:21:19;;;;;;;5.05;1.75;;;26.40;29.70;26.30;101767.00;;;;4919290;28;20050;-75
2021/06/01 10:23:48;;;;;;;3.00;1.83;;;26.50;28.80;26.40;101773.00;;;;4919628;28;20050;-75
2021/06/01 10:26:15;;;;;;;6.68;2.10;;;26.60;30.50;26.50;101762.00;;;;4924682;28;20091;-74
2021/06/01 10:28:47;;;;;;;4.30;1.80;;;26.60;29.70;26.60;101756.00;;;;4915900;29;20055;-75
2021/06/01 10:31:16;;;;;;;3.92;2.03;;;26.70;29.70;26.70;101755.00;;;;4924217;29;20120;-74
2021/06/01 10:33:51;;;;;;;3.65;1.90;;;26.80;27.40;26.50;101740.00;;;;4922570;28;20047;-75
2021/06/01 10:51:04;;;;;;;3.85;1.90;;;26.90;25.30;26.70;101738.00;;;;4920220;29;20079;-75
2021/06/01 10:53:41;;;;;;;3.40;1.70;;;26.90;28.60;26.70;101732.00;;;;4919941;28;20425;-74
2021/06/01 10:56:11;;;;;;;2.47;1.60;;;26.80;27.10;26.70;101733.00;;;;4921153;28;20050;-75
2021/06/01 10:58:39;;;;;;;2.72;1.88;;;26.90;28.40;26.80;101735.00;;;;4923904;29;20947;-74
2021/06/01 11:04:27;;;;;;;5.55;1.80;;;27.00;27.60;26.90;101732.00;;;;4920217;28;20114;-73
2021/06/01 11:09:31;;;;;;;1.75;1.60;;;27.10;25.00;26.90;101732.00;;;;4918913;28;20044;-73
2021/06/01 11:12:18;;;;;;;3.67;2.50;;;27.10;26.90;26.90;101730.00;;;;4920161;29;20051;-74
2021/06/01 11:14:57;;;;;;;3.60;2.00;;;27.10;27.80;27.10;101724.00;;;;4924738;29;20055;-74
2021/06/01 11:17:38;;;;;;;3.20;1.88;;;27.20;27.10;27.20;101722.00;;;;4922433;28;20040;-73
2021/06/01 11:33:54;;;;;;;2.40;1.88;;;27.60;25.50;27.50;101700.00;;;;4923436;28;20075;-74
2021/06/01 11:36:21;;;;;;;5.32;2.75;;;27.60;26.50;27.60;101698.00;;;;4919471;29;20067;-73
2021/06/01 11:38:57;;;;;;;6.18;2.63;;;27.80;26.10;27.70;101695.00;;;;4907840;29;20040;-73
2021/06/01 11:44:23;;;;;;;3.90;2.40;;;28.00;27.00;27.80;101690.00;;;;4939251;28;20047;-74
2021/06/01 11:46:59;;;;;;;5.63;2.40;;;28.00;26.40;27.90;101684.00;;;;4922015;28;20048;-75
2021/06/01 11:52:10;;;;;;;5.53;2.53;;;28.00;27.40;28.00;101681.00;;;;4903623;29;20040;-75
2021/06/01 11:54:37;;;;;;;4.30;2.50;;;28.10;28.00;28.10;101682.00;;;;4905723;29;20036;-74
2021/06/01 11:57:21;;;;;;;6.28;2.40;;;28.20;27.90;28.10;101681.00;;;;4903151;29;20127;-73
2021/06/01 12:19:06;;;;;;;4.80;2.60;;;28.20;27.00;28.00;101672.00;;;;4929478;29;20059;-73